sensor_id;sensor_type;location;lat;lon;timestamp;P1;durP1;ratioP1;P2;durP2;ratioP2
15516;SDS011;7860;52.030;5.572;2022-08-01T00:04:53;9.61;;;5.33;;
15516;SDS011;7860;52.030;5.572;2022-08-01T00:04:59;10.91;;;5.89;;
15516;SDS011;7860;52.030;5.572;2022-08-01T00:04:59;9.96;;;5.49;;
15516;SDS011;7860;52.030;5.572;2022-08-01T00:05:59;9.83;;;5.42;;
15516;SDS011;7860;52.030;5.572;2022-08-01T00:07:00;9.70;;;5.33;;
15516;SDS011;7860;52.030;5.572;2022-08-01T00:08:00;9.47;;;5.30;;
15516;SDS011;7860;52.030;5.572;2022-08-01T00:09:00;10.48;;;5.22;;
15516;SDS011;7860;52.030;5.572;2022-08-01T00:10:00;9.31;;;5.07;;
15516;SDS011;7860;52.030;5.572;2022-08-01T00:11:00;10.16;;;4.90;;
15516;SDS011;7860;52.030;5.572;2022-08-01T00:12:00;9.22;;;5.20;;
15516;SDS011;7860;52.030;5.572;2022-08-01T00:13:00;8.90;;;5.02;;
15516;SDS011;7860;52.030;5.572;2022-08-01T00:14:00;8.97;;;4.67;;
15516;SDS011;7860;52.030;5.572;2022-08-01T00:15:00;9.45;;;4.98;;
15516;SDS011;7860;52.030;5.572;2022-08-01T00:16:00;8.11;;;4.58;;
15516;SDS011;7860;52.030;5.572;2022-08-01T00:17:00;9.15;;;5.08;;
15516;SDS011;7860;52.030;5.572;2022-08-01T00:18:00;8.52;;;4.71;;
15516;SDS011;7860;52.030;5.572;2022-08-01T00:19:01;8.83;;;4.72;;
15516;SDS011;7860;52.030;5.572;2022-08-01T00:20:01;8.71;;;4.70;;
15516;SDS011;7860;52.030;5.572;2022-08-01T00:21:01;7.89;;;4.58;;
15516;SDS011;7860;52.030;5.572;2022-08-01T00:22:01;8.86;;;4.45;;
15516;SDS011;7860;52.030;5.572;2022-08-01T00:23:01;9.57;;;4.69;;
15516;SDS011;7860;52.030;5.572;2022-08-01T00:24:01;8.94;;;4.94;;
15516;SDS011;7860;52.030;5.572;2022-08-01T00:25:01;8.80;;;4.33;;
15516;SDS011;7860;52.030;5.572;2022-08-01T00:26:01;8.58;;;4.46;;
15516;SDS011;7860;52.030;5.572;2022-08-01T00:27:01;8.07;;;4.53;;
15516;SDS011;7860;52.030;5.572;2022-08-01T00:28:01;8.60;;;4.63;;
15516;SDS011;7860;52.030;5.572;2022-08-01T00:29:01;8.75;;;4.65;;
15516;SDS011;7860;52.030;5.572;2022-08-01T00:30:02;8.66;;;4.40;;
15516;SDS011;7860;52.030;5.572;2022-08-01T00:31:01;8.68;;;4.58;;
15516;SDS011;7860;52.030;5.572;2022-08-01T00:32:01;8.45;;;4.38;;
15516;SDS011;7860;52.030;5.572;2022-08-01T00:33:01;9.06;;;4.68;;
15516;SDS011;7860;52.030;5.572;2022-08-01T00:34:01;8.17;;;4.50;;
15516;SDS011;7860;52.030;5.572;2022-08-01T00:35:02;8.15;;;4.19;;
15516;SDS011;7860;52.030;5.572;2022-08-01T00:36:02;8.37;;;4.33;;
15516;SDS011;7860;52.030;5.572;2022-08-01T00:37:02;8.50;;;4.44;;
15516;SDS011;7860;52.030;5.572;2022-08-01T00:38:02;9.44;;;4.12;;
15516;SDS011;7860;52.030;5.572;2022-08-01T00:39:02;7.44;;;4.19;;
15516;SDS011;7860;52.030;5.572;2022-08-01T00:40:02;8.25;;;4.35;;
15516;SDS011;7860;52.030;5.572;2022-08-01T00:41:02;7.89;;;4.24;;
15516;SDS011;7860;52.030;5.572;2022-08-01T00:42:05;8.73;;;4.57;;
15516;SDS011;7860;52.030;5.572;2022-08-01T00:43:02;8.82;;;4.89;;
15516;SDS011;7860;52.030;5.572;2022-08-01T00:44:03;7.77;;;4.42;;
15516;SDS011;7860;52.030;5.572;2022-08-01T00:45:04;8.55;;;4.68;;
15516;SDS011;7860;52.030;5.572;2022-08-01T00:46:02;9.53;;;5.33;;
15516;SDS011;7860;52.030;5.572;2022-08-01T00:47:03;9.97;;;4.98;;
15516;SDS011;7860;52.030;5.572;2022-08-01T00:48:03;10.02;;;5.29;;
15516;SDS011;7860;52.030;5.572;2022-08-01T00:49:03;9.92;;;5.71;;
15516;SDS011;7860;52.030;5.572;2022-08-01T00:50:04;9.43;;;5.55;;
15516;SDS011;7860;52.030;5.572;2022-08-01T00:51:04;9.81;;;5.49;;
15516;SDS011;7860;52.030;5.572;2022-08-01T00:52:04;10.74;;;5.54;;
15516;SDS011;7860;52.030;5.572;2022-08-01T00:53:04;10.56;;;5.69;;
15516;SDS011;7860;52.030;5.572;2022-08-01T00:54:04;10.86;;;5.91;;
15516;SDS011;7860;52.030;5.572;2022-08-01T00:55:04;12.98;;;6.55;;
15516;SDS011;7860;52.030;5.572;2022-08-01T00:56:04;12.84;;;6.86;;
15516;SDS011;7860;52.030;5.572;2022-08-01T00:57:04;11.43;;;6.11;;
15516;SDS011;7860;52.030;5.572;2022-08-01T00:58:04;10.55;;;5.74;;
15516;SDS011;7860;52.030;5.572;2022-08-01T00:59:04;11.76;;;5.81;;
15516;SDS011;7860;52.030;5.572;2022-08-01T01:00:06;11.91;;;6.41;;
15516;SDS011;7860;52.030;5.572;2022-08-01T01:01:04;11.57;;;5.94;;
15516;SDS011;7860;52.030;5.572;2022-08-01T01:02:04;13.32;;;6.57;;
15516;SDS011;7860;52.030;5.572;2022-08-01T01:03:04;11.71;;;6.13;;
15516;SDS011;7860;52.030;5.572;2022-08-01T01:04:04;13.00;;;6.34;;
15516;SDS011;7860;52.030;5.572;2022-08-01T01:05:05;11.23;;;6.15;;
15516;SDS011;7860;52.030;5.572;2022-08-01T01:06:07;13.29;;;6.60;;
15516;SDS011;7860;52.030;5.572;2022-08-01T01:07:06;13.84;;;6.86;;
15516;SDS011;7860;52.030;5.572;2022-08-01T01:08:07;14.81;;;6.79;;
15516;SDS011;7860;52.030;5.572;2022-08-01T01:09:11;13.16;;;6.78;;
15516;SDS011;7860;52.030;5.572;2022-08-01T01:10:06;12.22;;;6.82;;
15516;SDS011;7860;52.030;5.572;2022-08-01T01:11:06;13.60;;;6.99;;
15516;SDS011;7860;52.030;5.572;2022-08-01T01:12:11;15.05;;;6.79;;
15516;SDS011;7860;52.030;5.572;2022-08-01T01:13:06;13.34;;;6.55;;
15516;SDS011;7860;52.030;5.572;2022-08-01T01:14:07;13.33;;;6.61;;
15516;SDS011;7860;52.030;5.572;2022-08-01T01:15:06;11.97;;;6.05;;
15516;SDS011;7860;52.030;5.572;2022-08-01T01:16:06;10.41;;;5.70;;
15516;SDS011;7860;52.030;5.572;2022-08-01T01:17:06;11.61;;;5.73;;
15516;SDS011;7860;52.030;5.572;2022-08-01T01:18:07;12.94;;;6.27;;
15516;SDS011;7860;52.030;5.572;2022-08-01T01:19:05;11.18;;;5.51;;
15516;SDS011;7860;52.030;5.572;2022-08-01T01:20:06;12.04;;;5.63;;
15516;SDS011;7860;52.030;5.572;2022-08-01T01:21:07;10.45;;;5.58;;
15516;SDS011;7860;52.030;5.572;2022-08-01T01:22:17;12.74;;;5.55;;
15516;SDS011;7860;52.030;5.572;2022-08-01T01:23:10;10.53;;;5.28;;
15516;SDS011;7860;52.030;5.572;2022-08-01T01:24:10;11.07;;;5.21;;
15516;SDS011;7860;52.030;5.572;2022-08-01T01:25:09;10.04;;;5.22;;
15516;SDS011;7860;52.030;5.572;2022-08-01T01:26:11;10.69;;;4.85;;
15516;SDS011;7860;52.030;5.572;2022-08-01T01:27:09;11.92;;;5.30;;
15516;SDS011;7860;52.030;5.572;2022-08-01T01:28:10;9.89;;;5.27;;
15516;SDS011;7860;52.030;5.572;2022-08-01T01:29:08;10.57;;;5.00;;
15516;SDS011;7860;52.030;5.572;2022-08-01T01:30:07;11.23;;;5.50;;
15516;SDS011;7860;52.030;5.572;2022-08-01T01:31:07;10.02;;;5.11;;
15516;SDS011;7860;52.030;5.572;2022-08-01T01:32:09;9.89;;;5.00;;
15516;SDS011;7860;52.030;5.572;2022-08-01T01:33:08;10.97;;;5.14;;
15516;SDS011;7860;52.030;5.572;2022-08-01T01:34:09;10.74;;;5.10;;
15516;SDS011;7860;52.030;5.572;2022-08-01T01:35:09;10.75;;;4.63;;
15516;SDS011;7860;52.030;5.572;2022-08-01T01:36:09;10.06;;;4.87;;
15516;SDS011;7860;52.030;5.572;2022-08-01T01:37:09;11.66;;;5.25;;
15516;SDS011;7860;52.030;5.572;2022-08-01T01:38:09;9.90;;;4.92;;
15516;SDS011;7860;52.030;5.572;2022-08-01T01:39:08;8.95;;;4.50;;
15516;SDS011;7860;52.030;5.572;2022-08-01T01:40:09;9.27;;;4.78;;
15516;SDS011;7860;52.030;5.572;2022-08-01T01:41:08;9.09;;;4.50;;
15516;SDS011;7860;52.030;5.572;2022-08-01T01:42:09;9.02;;;4.68;;
15516;SDS011;7860;52.030;5.572;2022-08-01T01:43:09;10.45;;;5.08;;
15516;SDS011;7860;52.030;5.572;2022-08-01T01:44:08;9.50;;;4.90;;
15516;SDS011;7860;52.030;5.572;2022-08-01T01:45:08;9.91;;;4.81;;
15516;SDS011;7860;52.030;5.572;2022-08-01T01:46:09;11.66;;;5.23;;
15516;SDS011;7860;52.030;5.572;2022-08-01T01:47:09;9.06;;;5.02;;
15516;SDS011;7860;52.030;5.572;2022-08-01T01:48:09;10.29;;;5.20;;
15516;SDS011;7860;52.030;5.572;2022-08-01T01:49:09;11.41;;;4.80;;
15516;SDS011;7860;52.030;5.572;2022-08-01T01:50:09;11.85;;;5.10;;
15516;SDS011;7860;52.030;5.572;2022-08-01T01:51:09;9.43;;;5.11;;
15516;SDS011;7860;52.030;5.572;2022-08-01T01:52:09;10.91;;;5.19;;
15516;SDS011;7860;52.030;5.572;2022-08-01T01:53:09;10.91;;;5.90;;
15516;SDS011;7860;52.030;5.572;2022-08-01T01:54:09;10.18;;;5.12;;
15516;SDS011;7860;52.030;5.572;2022-08-01T01:55:09;10.27;;;5.32;;
15516;SDS011;7860;52.030;5.572;2022-08-01T01:56:09;10.36;;;5.02;;
15516;SDS011;7860;52.030;5.572;2022-08-01T01:57:09;9.41;;;4.81;;
15516;SDS011;7860;52.030;5.572;2022-08-01T01:58:09;12.97;;;5.52;;
15516;SDS011;7860;52.030;5.572;2022-08-01T01:59:09;10.22;;;5.39;;
15516;SDS011;7860;52.030;5.572;2022-08-01T02:00:10;11.47;;;5.66;;
15516;SDS011;7860;52.030;5.572;2022-08-01T02:01:09;10.93;;;5.80;;
15516;SDS011;7860;52.030;5.572;2022-08-01T02:02:09;11.10;;;5.15;;
15516;SDS011;7860;52.030;5.572;2022-08-01T02:03:10;11.31;;;5.48;;
15516;SDS011;7860;52.030;5.572;2022-08-01T02:04:09;11.68;;;5.84;;
15516;SDS011;7860;52.030;5.572;2022-08-01T02:05:10;10.17;;;5.37;;
15516;SDS011;7860;52.030;5.572;2022-08-01T02:06:10;12.19;;;5.93;;
15516;SDS011;7860;52.030;5.572;2022-08-01T02:07:10;11.48;;;5.74;;
15516;SDS011;7860;52.030;5.572;2022-08-01T02:08:10;10.63;;;5.45;;
15516;SDS011;7860;52.030;5.572;2022-08-01T02:09:10;11.57;;;5.36;;
15516;SDS011;7860;52.030;5.572;2022-08-01T02:10:10;10.84;;;5.78;;
15516;SDS011;7860;52.030;5.572;2022-08-01T02:11:10;11.80;;;5.72;;
15516;SDS011;7860;52.030;5.572;2022-08-01T02:12:10;10.72;;;5.26;;
15516;SDS011;7860;52.030;5.572;2022-08-01T02:13:10;11.84;;;6.15;;
15516;SDS011;7860;52.030;5.572;2022-08-01T02:14:11;11.19;;;6.00;;
15516;SDS011;7860;52.030;5.572;2022-08-01T02:15:11;12.62;;;6.15;;
15516;SDS011;7860;52.030;5.572;2022-08-01T02:16:11;12.08;;;6.06;;
15516;SDS011;7860;52.030;5.572;2022-08-01T02:17:12;11.68;;;6.06;;
15516;SDS011;7860;52.030;5.572;2022-08-01T02:18:11;12.76;;;6.02;;
15516;SDS011;7860;52.030;5.572;2022-08-01T02:19:11;11.05;;;6.03;;
15516;SDS011;7860;52.030;5.572;2022-08-01T02:20:11;12.92;;;6.62;;
15516;SDS011;7860;52.030;5.572;2022-08-01T02:21:12;12.06;;;6.41;;
15516;SDS011;7860;52.030;5.572;2022-08-01T02:22:14;11.96;;;6.57;;
15516;SDS011;7860;52.030;5.572;2022-08-01T02:23:12;12.72;;;6.44;;
15516;SDS011;7860;52.030;5.572;2022-08-01T02:24:13;12.81;;;6.81;;
15516;SDS011;7860;52.030;5.572;2022-08-01T02:25:15;14.05;;;6.61;;
15516;SDS011;7860;52.030;5.572;2022-08-01T02:26:13;11.34;;;6.07;;
15516;SDS011;7860;52.030;5.572;2022-08-01T02:27:14;13.59;;;6.73;;
15516;SDS011;7860;52.030;5.572;2022-08-01T02:28:13;12.73;;;6.61;;
15516;SDS011;7860;52.030;5.572;2022-08-01T02:29:15;13.30;;;6.18;;
15516;SDS011;7860;52.030;5.572;2022-08-01T02:30:13;12.99;;;6.49;;
15516;SDS011;7860;52.030;5.572;2022-08-01T02:31:14;12.02;;;6.75;;
15516;SDS011;7860;52.030;5.572;2022-08-01T02:32:15;12.88;;;6.42;;
15516;SDS011;7860;52.030;5.572;2022-08-01T02:33:15;11.67;;;6.76;;
15516;SDS011;7860;52.030;5.572;2022-08-01T02:34:15;12.72;;;6.61;;
15516;SDS011;7860;52.030;5.572;2022-08-01T02:35:13;11.98;;;6.32;;
15516;SDS011;7860;52.030;5.572;2022-08-01T02:36:13;14.47;;;6.69;;
15516;SDS011;7860;52.030;5.572;2022-08-01T02:37:13;13.73;;;6.45;;
15516;SDS011;7860;52.030;5.572;2022-08-01T02:38:13;12.81;;;6.63;;
15516;SDS011;7860;52.030;5.572;2022-08-01T02:39:15;13.52;;;6.90;;
15516;SDS011;7860;52.030;5.572;2022-08-01T02:40:14;13.34;;;7.16;;
15516;SDS011;7860;52.030;5.572;2022-08-01T02:41:16;13.62;;;6.79;;
15516;SDS011;7860;52.030;5.572;2022-08-01T02:42:14;11.95;;;7.13;;
15516;SDS011;7860;52.030;5.572;2022-08-01T02:43:15;13.97;;;6.87;;
15516;SDS011;7860;52.030;5.572;2022-08-01T02:44:15;15.84;;;6.90;;
15516;SDS011;7860;52.030;5.572;2022-08-01T02:45:15;11.81;;;6.19;;
15516;SDS011;7860;52.030;5.572;2022-08-01T02:46:16;13.28;;;6.78;;
15516;SDS011;7860;52.030;5.572;2022-08-01T02:47:15;12.40;;;6.64;;
15516;SDS011;7860;52.030;5.572;2022-08-01T02:48:15;11.24;;;5.96;;
15516;SDS011;7860;52.030;5.572;2022-08-01T02:49:15;13.64;;;6.67;;
15516;SDS011;7860;52.030;5.572;2022-08-01T02:50:15;12.61;;;6.29;;
15516;SDS011;7860;52.030;5.572;2022-08-01T02:51:15;12.97;;;6.42;;
15516;SDS011;7860;52.030;5.572;2022-08-01T02:52:16;12.42;;;6.13;;
15516;SDS011;7860;52.030;5.572;2022-08-01T02:53:16;11.67;;;6.14;;
15516;SDS011;7860;52.030;5.572;2022-08-01T02:54:15;11.26;;;6.40;;
15516;SDS011;7860;52.030;5.572;2022-08-01T02:55:15;12.20;;;6.05;;
15516;SDS011;7860;52.030;5.572;2022-08-01T02:56:15;12.04;;;6.13;;
15516;SDS011;7860;52.030;5.572;2022-08-01T02:57:16;11.84;;;6.22;;
15516;SDS011;7860;52.030;5.572;2022-08-01T02:58:16;10.53;;;5.91;;
15516;SDS011;7860;52.030;5.572;2022-08-01T02:59:16;12.01;;;5.80;;
15516;SDS011;7860;52.030;5.572;2022-08-01T03:00:16;10.97;;;5.70;;
15516;SDS011;7860;52.030;5.572;2022-08-01T03:01:16;11.22;;;5.92;;
15516;SDS011;7860;52.030;5.572;2022-08-01T03:02:16;11.84;;;6.37;;
15516;SDS011;7860;52.030;5.572;2022-08-01T03:03:16;11.55;;;5.97;;
15516;SDS011;7860;52.030;5.572;2022-08-01T03:04:16;12.74;;;6.12;;
15516;SDS011;7860;52.030;5.572;2022-08-01T03:05:16;11.36;;;5.70;;
15516;SDS011;7860;52.030;5.572;2022-08-01T03:06:16;11.84;;;6.09;;
15516;SDS011;7860;52.030;5.572;2022-08-01T03:07:16;12.37;;;6.17;;
15516;SDS011;7860;52.030;5.572;2022-08-01T03:08:16;11.35;;;5.58;;
15516;SDS011;7860;52.030;5.572;2022-08-01T03:09:16;12.99;;;6.10;;
15516;SDS011;7860;52.030;5.572;2022-08-01T03:10:16;12.55;;;6.29;;
15516;SDS011;7860;52.030;5.572;2022-08-01T03:11:16;11.87;;;5.62;;
15516;SDS011;7860;52.030;5.572;2022-08-01T03:12:17;11.92;;;5.92;;
15516;SDS011;7860;52.030;5.572;2022-08-01T03:13:16;12.61;;;5.86;;
15516;SDS011;7860;52.030;5.572;2022-08-01T03:14:16;11.76;;;6.26;;
15516;SDS011;7860;52.030;5.572;2022-08-01T03:15:16;11.18;;;5.75;;
15516;SDS011;7860;52.030;5.572;2022-08-01T03:16:17;11.50;;;5.54;;
15516;SDS011;7860;52.030;5.572;2022-08-01T03:17:17;10.52;;;5.50;;
15516;SDS011;7860;52.030;5.572;2022-08-01T03:18:17;10.34;;;5.36;;
15516;SDS011;7860;52.030;5.572;2022-08-01T03:19:17;10.31;;;5.38;;
15516;SDS011;7860;52.030;5.572;2022-08-01T03:20:18;10.79;;;5.07;;
15516;SDS011;7860;52.030;5.572;2022-08-01T03:21:17;10.70;;;5.10;;
15516;SDS011;7860;52.030;5.572;2022-08-01T03:22:17;11.45;;;5.72;;
15516;SDS011;7860;52.030;5.572;2022-08-01T03:23:17;10.86;;;5.53;;
15516;SDS011;7860;52.030;5.572;2022-08-01T03:24:17;10.17;;;4.76;;
15516;SDS011;7860;52.030;5.572;2022-08-01T03:25:17;11.35;;;5.33;;
15516;SDS011;7860;52.030;5.572;2022-08-01T03:26:17;11.51;;;5.67;;
15516;SDS011;7860;52.030;5.572;2022-08-01T03:27:18;11.17;;;5.36;;
15516;SDS011;7860;52.030;5.572;2022-08-01T03:28:17;10.99;;;6.00;;
15516;SDS011;7860;52.030;5.572;2022-08-01T03:29:18;10.62;;;5.31;;
15516;SDS011;7860;52.030;5.572;2022-08-01T03:30:17;11.26;;;5.35;;
15516;SDS011;7860;52.030;5.572;2022-08-01T03:31:17;12.49;;;5.81;;
15516;SDS011;7860;52.030;5.572;2022-08-01T03:32:17;9.50;;;5.02;;
15516;SDS011;7860;52.030;5.572;2022-08-01T03:33:17;10.20;;;5.19;;
15516;SDS011;7860;52.030;5.572;2022-08-01T03:34:17;10.79;;;5.54;;
15516;SDS011;7860;52.030;5.572;2022-08-01T03:35:17;11.76;;;5.86;;
15516;SDS011;7860;52.030;5.572;2022-08-01T03:36:18;11.66;;;5.44;;
15516;SDS011;7860;52.030;5.572;2022-08-01T03:37:19;12.12;;;5.99;;
15516;SDS011;7860;52.030;5.572;2022-08-01T03:38:22;12.36;;;5.98;;
15516;SDS011;7860;52.030;5.572;2022-08-01T03:39:18;10.42;;;5.04;;
15516;SDS011;7860;52.030;5.572;2022-08-01T03:40:20;11.16;;;5.46;;
15516;SDS011;7860;52.030;5.572;2022-08-01T03:41:19;11.15;;;5.62;;
15516;SDS011;7860;52.030;5.572;2022-08-01T03:42:20;11.79;;;5.59;;
15516;SDS011;7860;52.030;5.572;2022-08-01T03:43:20;11.36;;;5.59;;
15516;SDS011;7860;52.030;5.572;2022-08-01T03:44:20;11.08;;;5.34;;
15516;SDS011;7860;52.030;5.572;2022-08-01T03:45:20;11.68;;;6.04;;
15516;SDS011;7860;52.030;5.572;2022-08-01T03:46:20;11.00;;;5.57;;
15516;SDS011;7860;52.030;5.572;2022-08-01T03:47:19;12.77;;;5.90;;
15516;SDS011;7860;52.030;5.572;2022-08-01T03:48:21;10.84;;;5.57;;
15516;SDS011;7860;52.030;5.572;2022-08-01T03:49:22;12.66;;;6.08;;
15516;SDS011;7860;52.030;5.572;2022-08-01T03:50:20;10.27;;;5.52;;
15516;SDS011;7860;52.030;5.572;2022-08-01T03:51:20;11.77;;;6.16;;
15516;SDS011;7860;52.030;5.572;2022-08-01T03:52:20;12.13;;;6.08;;
15516;SDS011;7860;52.030;5.572;2022-08-01T03:53:22;11.08;;;5.55;;
15516;SDS011;7860;52.030;5.572;2022-08-01T03:54:21;9.91;;;5.25;;
15516;SDS011;7860;52.030;5.572;2022-08-01T03:55:20;11.08;;;5.55;;
15516;SDS011;7860;52.030;5.572;2022-08-01T03:56:20;10.95;;;5.80;;
15516;SDS011;7860;52.030;5.572;2022-08-01T03:57:21;12.13;;;6.14;;
15516;SDS011;7860;52.030;5.572;2022-08-01T03:58:21;12.40;;;5.87;;
15516;SDS011;7860;52.030;5.572;2022-08-01T03:59:21;11.51;;;5.50;;
15516;SDS011;7860;52.030;5.572;2022-08-01T04:00:21;10.97;;;5.51;;
15516;SDS011;7860;52.030;5.572;2022-08-01T04:01:21;11.32;;;5.61;;
15516;SDS011;7860;52.030;5.572;2022-08-01T04:02:21;11.17;;;5.28;;
15516;SDS011;7860;52.030;5.572;2022-08-01T04:03:21;11.71;;;5.41;;
15516;SDS011;7860;52.030;5.572;2022-08-01T04:04:21;10.96;;;5.67;;
15516;SDS011;7860;52.030;5.572;2022-08-01T04:05:21;10.11;;;5.59;;
15516;SDS011;7860;52.030;5.572;2022-08-01T04:06:21;11.07;;;5.99;;
15516;SDS011;7860;52.030;5.572;2022-08-01T04:07:22;11.13;;;5.82;;
15516;SDS011;7860;52.030;5.572;2022-08-01T04:08:21;11.57;;;5.62;;
15516;SDS011;7860;52.030;5.572;2022-08-01T04:09:21;11.93;;;5.71;;
15516;SDS011;7860;52.030;5.572;2022-08-01T04:10:21;11.62;;;5.92;;
15516;SDS011;7860;52.030;5.572;2022-08-01T04:11:22;11.95;;;5.60;;
15516;SDS011;7860;52.030;5.572;2022-08-01T04:12:22;11.85;;;5.87;;
15516;SDS011;7860;52.030;5.572;2022-08-01T04:13:22;11.78;;;5.70;;
15516;SDS011;7860;52.030;5.572;2022-08-01T04:14:22;9.99;;;5.47;;
15516;SDS011;7860;52.030;5.572;2022-08-01T04:15:22;11.18;;;5.82;;
15516;SDS011;7860;52.030;5.572;2022-08-01T04:16:22;11.27;;;5.80;;
15516;SDS011;7860;52.030;5.572;2022-08-01T04:17:22;10.63;;;5.28;;
15516;SDS011;7860;52.030;5.572;2022-08-01T04:18:22;10.48;;;5.36;;
15516;SDS011;7860;52.030;5.572;2022-08-01T04:19:22;10.50;;;5.39;;
15516;SDS011;7860;52.030;5.572;2022-08-01T04:20:22;12.20;;;6.05;;
15516;SDS011;7860;52.030;5.572;2022-08-01T04:21:23;11.74;;;5.87;;
15516;SDS011;7860;52.030;5.572;2022-08-01T04:22:22;14.33;;;6.20;;
15516;SDS011;7860;52.030;5.572;2022-08-01T04:23:22;11.65;;;6.31;;
15516;SDS011;7860;52.030;5.572;2022-08-01T04:24:22;10.31;;;5.39;;
15516;SDS011;7860;52.030;5.572;2022-08-01T04:25:24;12.53;;;5.73;;
15516;SDS011;7860;52.030;5.572;2022-08-01T04:26:22;9.26;;;5.17;;
15516;SDS011;7860;52.030;5.572;2022-08-01T04:27:23;10.99;;;5.65;;
15516;SDS011;7860;52.030;5.572;2022-08-01T04:28:22;11.59;;;6.03;;
15516;SDS011;7860;52.030;5.572;2022-08-01T04:29:22;12.24;;;6.18;;
15516;SDS011;7860;52.030;5.572;2022-08-01T04:30:24;12.91;;;6.21;;
15516;SDS011;7860;52.030;5.572;2022-08-01T04:31:22;11.64;;;5.97;;
15516;SDS011;7860;52.030;5.572;2022-08-01T04:32:23;11.10;;;5.98;;
15516;SDS011;7860;52.030;5.572;2022-08-01T04:33:23;10.98;;;5.81;;
15516;SDS011;7860;52.030;5.572;2022-08-01T04:34:23;10.84;;;5.96;;
15516;SDS011;7860;52.030;5.572;2022-08-01T04:35:23;12.36;;;5.87;;
15516;SDS011;7860;52.030;5.572;2022-08-01T04:36:23;10.37;;;5.81;;
15516;SDS011;7860;52.030;5.572;2022-08-01T04:37:23;11.64;;;5.62;;
15516;SDS011;7860;52.030;5.572;2022-08-01T04:38:24;10.49;;;6.02;;
15516;SDS011;7860;52.030;5.572;2022-08-01T04:39:23;10.22;;;5.97;;
15516;SDS011;7860;52.030;5.572;2022-08-01T04:40:23;10.16;;;5.87;;
15516;SDS011;7860;52.030;5.572;2022-08-01T04:41:23;11.15;;;5.62;;
15516;SDS011;7860;52.030;5.572;2022-08-01T04:42:23;10.38;;;5.60;;
15516;SDS011;7860;52.030;5.572;2022-08-01T04:43:23;10.41;;;5.91;;
15516;SDS011;7860;52.030;5.572;2022-08-01T04:44:23;12.23;;;6.06;;
15516;SDS011;7860;52.030;5.572;2022-08-01T04:45:23;9.59;;;5.64;;
15516;SDS011;7860;52.030;5.572;2022-08-01T04:46:23;10.31;;;5.64;;
15516;SDS011;7860;52.030;5.572;2022-08-01T04:47:24;10.78;;;5.87;;
15516;SDS011;7860;52.030;5.572;2022-08-01T04:48:23;9.12;;;5.35;;
15516;SDS011;7860;52.030;5.572;2022-08-01T04:49:24;10.71;;;5.88;;
15516;SDS011;7860;52.030;5.572;2022-08-01T04:50:24;10.77;;;5.28;;
15516;SDS011;7860;52.030;5.572;2022-08-01T04:51:24;10.18;;;5.66;;
15516;SDS011;7860;52.030;5.572;2022-08-01T04:52:32;9.80;;;5.48;;
15516;SDS011;7860;52.030;5.572;2022-08-01T04:53:25;9.36;;;5.34;;
15516;SDS011;7860;52.030;5.572;2022-08-01T04:54:25;12.24;;;5.70;;
15516;SDS011;7860;52.030;5.572;2022-08-01T04:55:25;10.07;;;5.48;;
15516;SDS011;7860;52.030;5.572;2022-08-01T04:56:25;10.47;;;5.42;;
15516;SDS011;7860;52.030;5.572;2022-08-01T04:57:25;9.83;;;5.26;;
15516;SDS011;7860;52.030;5.572;2022-08-01T04:58:25;10.98;;;5.45;;
15516;SDS011;7860;52.030;5.572;2022-08-01T04:59:25;9.50;;;5.17;;
15516;SDS011;7860;52.030;5.572;2022-08-01T05:00:25;9.62;;;5.42;;
15516;SDS011;7860;52.030;5.572;2022-08-01T05:01:25;10.70;;;5.56;;
15516;SDS011;7860;52.030;5.572;2022-08-01T05:02:25;11.54;;;6.09;;
15516;SDS011;7860;52.030;5.572;2022-08-01T05:03:25;9.45;;;5.44;;
15516;SDS011;7860;52.030;5.572;2022-08-01T05:04:25;10.22;;;5.68;;
15516;SDS011;7860;52.030;5.572;2022-08-01T05:05:25;10.04;;;5.69;;
15516;SDS011;7860;52.030;5.572;2022-08-01T05:06:25;10.84;;;5.89;;
15516;SDS011;7860;52.030;5.572;2022-08-01T05:07:26;10.49;;;5.71;;
15516;SDS011;7860;52.030;5.572;2022-08-01T05:08:26;9.49;;;5.58;;
15516;SDS011;7860;52.030;5.572;2022-08-01T05:09:26;9.95;;;5.74;;
15516;SDS011;7860;52.030;5.572;2022-08-01T05:10:26;11.25;;;5.65;;
15516;SDS011;7860;52.030;5.572;2022-08-01T05:11:26;9.29;;;5.44;;
15516;SDS011;7860;52.030;5.572;2022-08-01T05:12:26;9.36;;;5.31;;
15516;SDS011;7860;52.030;5.572;2022-08-01T05:13:26;9.08;;;5.31;;
15516;SDS011;7860;52.030;5.572;2022-08-01T05:14:26;9.66;;;4.84;;
15516;SDS011;7860;52.030;5.572;2022-08-01T05:15:26;8.89;;;5.04;;
15516;SDS011;7860;52.030;5.572;2022-08-01T05:16:26;9.19;;;5.05;;
15516;SDS011;7860;52.030;5.572;2022-08-01T05:17:26;9.80;;;4.85;;
15516;SDS011;7860;52.030;5.572;2022-08-01T05:18:26;8.53;;;4.39;;
15516;SDS011;7860;52.030;5.572;2022-08-01T05:19:26;6.78;;;3.26;;
15516;SDS011;7860;52.030;5.572;2022-08-01T05:20:26;7.07;;;3.15;;
15516;SDS011;7860;52.030;5.572;2022-08-01T05:21:26;6.36;;;3.29;;
15516;SDS011;7860;52.030;5.572;2022-08-01T05:22:26;5.50;;;3.00;;
15516;SDS011;7860;52.030;5.572;2022-08-01T05:23:27;6.74;;;3.22;;
15516;SDS011;7860;52.030;5.572;2022-08-01T05:24:27;5.40;;;2.98;;
15516;SDS011;7860;52.030;5.572;2022-08-01T05:25:27;6.08;;;2.85;;
15516;SDS011;7860;52.030;5.572;2022-08-01T05:26:27;5.76;;;2.88;;
15516;SDS011;7860;52.030;5.572;2022-08-01T05:27:27;5.26;;;2.20;;
15516;SDS011;7860;52.030;5.572;2022-08-01T05:28:27;4.66;;;2.27;;
15516;SDS011;7860;52.030;5.572;2022-08-01T05:29:27;3.68;;;2.04;;
15516;SDS011;7860;52.030;5.572;2022-08-01T05:30:27;4.73;;;2.14;;
15516;SDS011;7860;52.030;5.572;2022-08-01T05:31:27;3.91;;;2.07;;
15516;SDS011;7860;52.030;5.572;2022-08-01T05:32:27;3.79;;;1.87;;
15516;SDS011;7860;52.030;5.572;2022-08-01T05:33:27;4.25;;;1.93;;
15516;SDS011;7860;52.030;5.572;2022-08-01T05:34:27;4.75;;;2.31;;
15516;SDS011;7860;52.030;5.572;2022-08-01T05:35:27;3.71;;;1.95;;
15516;SDS011;7860;52.030;5.572;2022-08-01T05:36:27;3.76;;;1.95;;
15516;SDS011;7860;52.030;5.572;2022-08-01T05:37:27;3.77;;;2.02;;
15516;SDS011;7860;52.030;5.572;2022-08-01T05:38:27;3.89;;;1.93;;
15516;SDS011;7860;52.030;5.572;2022-08-01T05:39:27;4.69;;;2.45;;
15516;SDS011;7860;52.030;5.572;2022-08-01T05:40:27;3.42;;;1.99;;
15516;SDS011;7860;52.030;5.572;2022-08-01T05:41:28;4.25;;;2.09;;
15516;SDS011;7860;52.030;5.572;2022-08-01T05:42:28;3.74;;;2.00;;
15516;SDS011;7860;52.030;5.572;2022-08-01T05:43:28;4.67;;;2.30;;
15516;SDS011;7860;52.030;5.572;2022-08-01T05:44:28;5.21;;;2.09;;
15516;SDS011;7860;52.030;5.572;2022-08-01T05:45:28;4.50;;;2.07;;
15516;SDS011;7860;52.030;5.572;2022-08-01T05:46:28;4.98;;;2.22;;
15516;SDS011;7860;52.030;5.572;2022-08-01T05:47:28;4.24;;;2.26;;
15516;SDS011;7860;52.030;5.572;2022-08-01T05:48:28;5.18;;;2.06;;
15516;SDS011;7860;52.030;5.572;2022-08-01T05:49:28;4.08;;;2.25;;
15516;SDS011;7860;52.030;5.572;2022-08-01T05:50:28;4.90;;;2.16;;
15516;SDS011;7860;52.030;5.572;2022-08-01T05:51:28;5.13;;;2.27;;
15516;SDS011;7860;52.030;5.572;2022-08-01T05:52:28;5.39;;;2.40;;
15516;SDS011;7860;52.030;5.572;2022-08-01T05:53:28;4.06;;;2.18;;
15516;SDS011;7860;52.030;5.572;2022-08-01T05:54:29;5.83;;;2.31;;
15516;SDS011;7860;52.030;5.572;2022-08-01T05:55:28;5.51;;;2.20;;
15516;SDS011;7860;52.030;5.572;2022-08-01T05:56:29;4.06;;;2.10;;
15516;SDS011;7860;52.030;5.572;2022-08-01T05:57:29;4.23;;;2.13;;
15516;SDS011;7860;52.030;5.572;2022-08-01T05:58:29;4.59;;;2.31;;
15516;SDS011;7860;52.030;5.572;2022-08-01T05:59:29;3.79;;;2.11;;
15516;SDS011;7860;52.030;5.572;2022-08-01T06:00:29;4.42;;;2.11;;
15516;SDS011;7860;52.030;5.572;2022-08-01T06:01:29;5.95;;;2.12;;
15516;SDS011;7860;52.030;5.572;2022-08-01T06:02:29;4.27;;;2.16;;
15516;SDS011;7860;52.030;5.572;2022-08-01T06:03:29;4.10;;;2.01;;
15516;SDS011;7860;52.030;5.572;2022-08-01T06:04:29;3.93;;;2.10;;
15516;SDS011;7860;52.030;5.572;2022-08-01T06:05:29;3.49;;;1.99;;
15516;SDS011;7860;52.030;5.572;2022-08-01T06:06:29;4.48;;;2.16;;